createdAt,value
2022-08-01T00:00:49.482Z,59.50
2022-08-01T00:03:17.095Z,59.70
2022-08-01T00:05:45.428Z,59.60
2022-08-01T00:08:12.988Z,59.40
2022-08-01T00:10:40.611Z,59.40
2022-08-01T00:13:07.925Z,59.40
2022-08-01T00:15:37.861Z,59.50
2022-08-01T00:18:05.374Z,59.40
2022-08-01T00:20:32.865Z,59.30
2022-08-01T00:23:00.094Z,59.50
2022-08-01T00:25:33.988Z,59.30
2022-08-01T00:28:02.384Z,59.80
2022-08-01T00:30:32.222Z,59.90
2022-08-01T00:33:00.117Z,59.80
2022-08-01T00:35:27.440Z,60.10
2022-08-01T00:37:54.805Z,60.10
2022-08-01T00:40:22.787Z,60.20
2022-08-01T00:42:50.075Z,60.30
2022-08-01T00:45:17.364Z,60.50
2022-08-01T00:47:44.875Z,60.80
2022-08-01T00:50:12.841Z,60.80
2022-08-01T00:52:41.934Z,61.30
2022-08-01T00:55:13.129Z,61.20
2022-08-01T00:58:02.601Z,61.20
2022-08-01T01:00:31.212Z,61.00
2022-08-01T01:03:02.251Z,61.50
2022-08-01T01:05:37.284Z,61.50
2022-08-01T01:08:28.575Z,61.70
2022-08-01T01:11:01.561Z,61.70
2022-08-01T01:13:49.555Z,61.60
2022-08-01T01:16:20.926Z,62.50
2022-08-01T01:18:55.790Z,62.30
2022-08-01T01:21:30.200Z,62.70
2022-08-01T01:24:28.999Z,63.10
2022-08-01T01:27:17.987Z,63.20
2022-08-01T01:29:59.066Z,62.90
2022-08-01T01:32:36.272Z,63.90
2022-08-01T01:35:09.259Z,63.30
2022-08-01T01:37:38.685Z,63.20
2022-08-01T01:40:08.132Z,63.20
2022-08-01T01:42:36.998Z,63.60
2022-08-01T01:45:06.399Z,63.60
2022-08-01T01:47:35.195Z,63.50
2022-08-01T01:50:04.803Z,63.60
2022-08-01T01:52:33.249Z,63.80
2022-08-01T01:55:02.376Z,63.80
2022-08-01T01:57:33.051Z,63.90
2022-08-01T02:00:02.030Z,63.90
2022-08-01T02:02:32.769Z,64.20
2022-08-01T02:05:02.991Z,64.10
2022-08-01T02:07:31.475Z,64.10
2022-08-01T02:10:01.367Z,64.10
2022-08-01T02:12:30.738Z,64.30
2022-08-01T02:14:59.344Z,64.30
2022-08-01T02:17:28.603Z,64.80
2022-08-01T02:19:56.109Z,64.80
2022-08-01T02:22:28.548Z,64.90
2022-08-01T02:25:02.976Z,65.10
2022-08-01T02:28:02.438Z,65.20
2022-08-01T02:30:36.088Z,65.40
2022-08-01T02:33:22.985Z,65.10
2022-08-01T02:36:31.447Z,65.20
2022-08-01T02:38:45.489Z,65.50
2022-08-01T02:41:17.788Z,65.60
2022-08-01T02:43:53.462Z,65.80
2022-08-01T02:46:40.265Z,66.00
2022-08-01T02:49:12.753Z,66.50
2022-08-01T02:51:41.799Z,67.50
2022-08-01T02:54:10.920Z,66.70
2022-08-01T02:56:41.705Z,66.60
2022-08-01T02:59:15.472Z,66.60
2022-08-01T03:01:46.086Z,66.60
2022-08-01T03:04:15.504Z,66.50
2022-08-01T03:06:45.035Z,66.50
2022-08-01T03:09:13.927Z,66.30
2022-08-01T03:11:45.996Z,66.50
2022-08-01T03:14:15.175Z,66.60
2022-08-01T03:16:45.313Z,66.50
2022-08-01T03:19:14.379Z,66.50
2022-08-01T03:21:44.435Z,66.60
2022-08-01T03:24:14.316Z,66.60
2022-08-01T03:26:42.624Z,66.50
2022-08-01T03:29:18.044Z,66.50
2022-08-01T03:31:48.923Z,66.70
2022-08-01T03:34:17.589Z,67.00
2022-08-01T03:36:56.711Z,66.90
2022-08-01T03:39:31.088Z,67.20
2022-08-01T03:42:07.358Z,68.00
2022-08-01T03:44:40.117Z,67.30
2022-08-01T03:47:10.155Z,67.30
2022-08-01T03:49:43.728Z,67.30
2022-08-01T03:52:12.864Z,67.20
2022-08-01T03:54:46.952Z,67.30
2022-08-01T03:57:23.366Z,67.40
2022-08-01T04:00:08.320Z,68.30
2022-08-01T04:02:40.194Z,67.50
2022-08-01T04:05:08.488Z,67.60
2022-08-01T04:07:40.948Z,67.60
2022-08-01T04:10:09.305Z,67.50
2022-08-01T04:12:36.783Z,67.70
2022-08-01T04:15:05.628Z,67.90
2022-08-01T04:17:33.147Z,68.00
2022-08-01T04:20:00.835Z,68.00
2022-08-01T04:22:28.892Z,68.10
2022-08-01T04:24:58.464Z,68.30
2022-08-01T04:27:51.016Z,68.40
2022-08-01T04:30:26.439Z,68.80
2022-08-01T04:32:56.048Z,69.00
2022-08-01T04:36:03.006Z,69.30
2022-08-01T04:38:18.022Z,69.60
2022-08-01T04:40:46.811Z,69.70
2022-08-01T04:43:15.190Z,69.90
2022-08-01T04:45:44.790Z,70.00
2022-08-01T04:48:14.288Z,70.00
2022-08-01T04:50:42.975Z,69.90
2022-08-01T04:53:17.818Z,69.90
2022-08-01T04:55:46.993Z,69.40
2022-08-01T04:58:18.293Z,68.20
2022-08-01T05:00:47.842Z,67.20
2022-08-01T05:03:15.796Z,66.20
2022-08-01T05:05:43.497Z,65.50
2022-08-01T05:08:11.192Z,64.90
2022-08-01T05:10:39.091Z,64.40
2022-08-01T05:13:07.460Z,63.80
2022-08-01T05:15:37.648Z,63.40
2022-08-01T05:18:05.448Z,62.50
2022-08-01T05:20:35.527Z,62.10
2022-08-01T05:23:03.284Z,61.70
2022-08-01T05:25:56.027Z,61.70
2022-08-01T05:28:19.278Z,61.90
2022-08-01T05:30:46.906Z,62.10
2022-08-01T05:33:14.619Z,62.50
2022-08-01T05:35:47.666Z,62.40
2022-08-01T05:38:17.284Z,61.90
2022-08-01T05:40:44.889Z,61.70
2022-08-01T05:43:12.339Z,61.60
2022-08-01T05:45:39.826Z,61.70
2022-08-01T05:48:07.290Z,61.60
2022-08-01T05:50:34.993Z,61.80
2022-08-01T05:53:02.627Z,61.70
2022-08-01T05:55:31.188Z,61.80
2022-08-01T05:57:58.631Z,62.10
2022-08-01T06:00:26.114Z,62.00
2022-08-01T06:02:53.754Z,61.80
2022-08-01T06:05:21.587Z,62.10
2022-08-01T06:07:49.589Z,62.20
2022-08-01T06:10:17.345Z,62.00
2022-08-01T06:12:44.886Z,61.90
2022-08-01T06:15:12.602Z,61.80
2022-08-01T06:17:40.579Z,61.50
2022-08-01T06:20:09.342Z,61.40
2022-08-01T06:22:37.277Z,61.20
2022-08-01T06:25:06.542Z,61.20
2022-08-01T06:27:36.401Z,61.10
2022-08-01T06:30:08.406Z,60.90
2022-08-01T06:32:35.892Z,60.70
2022-08-01T06:35:04.214Z,60.60
2022-08-01T06:37:32.852Z,60.60
2022-08-01T06:40:11.299Z,60.10
2022-08-01T06:42:42.476Z,59.60
2022-08-01T06:45:11.432Z,59.60
2022-08-01T06:47:40.286Z,59.40
2022-08-01T06:50:09.894Z,59.30
2022-08-01T06:52:39.027Z,59.00
2022-08-01T06:55:06.882Z,59.00
2022-08-01T06:57:34.633Z,59.10
2022-08-01T07:00:07.206Z,59.10
2022-08-01T07:02:34.772Z,59.10
2022-08-01T07:05:02.210Z,59.10
2022-08-01T07:07:32.067Z,58.90
2022-08-01T07:09:59.501Z,58.90
2022-08-01T07:12:27.025Z,58.90
2022-08-01T07:14:54.399Z,58.90
2022-08-01T07:17:22.045Z,59.00
2022-08-01T07:19:49.660Z,58.90
2022-08-01T07:22:23.106Z,58.70
2022-08-01T07:24:54.583Z,58.80
2022-08-01T07:27:25.455Z,58.50
2022-08-01T07:29:53.836Z,58.50
2022-08-01T07:32:21.704Z,58.30
2022-08-01T07:34:49.203Z,58.50
2022-08-01T07:37:17.036Z,58.60
2022-08-01T07:39:44.511Z,58.90
2022-08-01T07:42:12.988Z,58.70
2022-08-01T07:44:40.989Z,57.90
2022-08-01T07:47:08.368Z,57.70
2022-08-01T07:49:40.265Z,56.90
2022-08-01T07:52:09.968Z,56.20
2022-08-01T07:54:37.768Z,55.80
2022-08-01T07:57:05.639Z,54.90
2022-08-01T07:59:33.517Z,54.10
2022-08-01T08:02:01.356Z,54.00
2022-08-01T08:04:29.216Z,53.70
2022-08-01T08:06:56.763Z,53.20
2022-08-01T08:09:24.541Z,52.80
2022-08-01T08:11:52.233Z,51.40
2022-08-01T08:14:20.295Z,50.00
2022-08-01T08:16:47.899Z,49.50
2022-08-01T08:19:15.431Z,49.20
2022-08-01T08:21:44.067Z,48.60
2022-08-01T08:24:26.421Z,48.70
2022-08-01T08:26:57.245Z,49.00
2022-08-01T08:29:27.185Z,48.80
2022-08-01T08:31:58.595Z,48.70
2022-08-01T08:34:27.751Z,48.40
2022-08-01T08:36:57.086Z,49.00
2022-08-01T08:39:27.184Z,49.10
2022-08-01T08:41:55.096Z,49.20
2022-08-01T08:44:22.522Z,49.50
2022-08-01T08:46:52.357Z,50.10
2022-08-01T08:49:25.015Z,50.70
2022-08-01T08:51:54.576Z,51.40
2022-08-01T08:54:30.846Z,51.00
2022-08-01T08:57:01.115Z,49.70
2022-08-01T08:59:29.405Z,48.70
2022-08-01T09:01:58.442Z,47.70
2022-08-01T09:04:27.365Z,46.40
2022-08-01T09:06:55.794Z,45.90
2022-08-01T09:09:24.562Z,45.50
2022-08-01T09:11:57.602Z,45.90
2022-08-01T09:14:30.886Z,46.20
2022-08-01T09:17:09.533Z,47.20
2022-08-01T09:19:45.056Z,46.70
2022-08-01T09:22:18.875Z,46.60
2022-08-01T09:25:11.871Z,47.10
2022-08-01T09:27:44.200Z,47.10
2022-08-01T09:30:19.685Z,47.20
2022-08-01T09:33:01.429Z,47.30
2022-08-01T09:35:31.981Z,47.80
2022-08-01T09:38:18.198Z,48.00
2022-08-01T09:40:46.597Z,48.20
2022-08-01T09:43:14.883Z,48.10
2022-08-01T09:45:43.964Z,48.50
2022-08-01T09:48:13.592Z,48.40
2022-08-01T09:50:47.264Z,48.70
2022-08-01T09:53:24.510Z,48.60
2022-08-01T09:56:13.414Z,48.60
2022-08-01T09:58:59.923Z,48.70
2022-08-01T10:01:36.781Z,48.80
2022-08-01T10:04:18.283Z,49.30
2022-08-01T10:06:53.309Z,49.90
2022-08-01T10:09:36.010Z,49.20
2022-08-01T10:12:15.912Z,48.40
2022-08-01T10:14:53.004Z,47.30
2022-08-01T10:17:22.768Z,46.50
2022-08-01T10:19:55.473Z,45.70
2022-08-01T10:22:27.764Z,45.80
2022-08-01T10:25:00.587Z,45.70
2022-08-01T10:27:38.398Z,45.70
2022-08-01T10:30:19.620Z,45.60
2022-08-01T10:32:51.335Z,45.50
2022-08-01T10:35:45.595Z,45.50
2022-08-01T10:38:10.871Z,45.70
2022-08-01T10:40:44.716Z,45.90
2022-08-01T10:43:13.503Z,46.30
2022-08-01T10:45:49.856Z,46.60
2022-08-01T10:48:41.296Z,46.50
2022-08-01T10:51:18.542Z,47.20
2022-08-01T10:53:54.332Z,47.80
2022-08-01T10:56:26.370Z,48.50
2022-08-01T10:59:06.577Z,48.90
2022-08-01T11:01:44.720Z,50.10
2022-08-01T11:04:16.839Z,49.50
2022-08-01T11:06:48.031Z,49.50
2022-08-01T11:09:16.540Z,49.70
2022-08-01T11:12:01.725Z,49.60
2022-08-01T11:14:55.271Z,49.20
2022-08-01T11:17:48.357Z,49.30
2022-08-01T11:20:23.773Z,49.50
2022-08-01T11:23:02.371Z,49.00
2022-08-01T11:26:03.600Z,49.00
2022-08-01T11:28:35.733Z,48.80
2022-08-01T11:31:14.291Z,48.90
2022-08-01T11:33:48.639Z,48.90
2022-08-01T11:36:17.001Z,49.00
2022-08-01T11:39:14.266Z,49.10
2022-08-01T11:41:44.896Z,49.10
2022-08-01T11:44:15.500Z,48.80
2022-08-01T11:46:53.882Z,48.80
2022-08-01T11:49:45.191Z,48.60
2022-08-01T11:52:29.194Z,48.70
2022-08-01T11:55:05.485Z,48.70
2022-08-01T11:57:41.014Z,49.10
2022-08-01T12:00:17.404Z,49.30
2022-08-01T12:02:47.682Z,49.10
2022-08-01T12:05:19.306Z,48.70
2022-08-01T12:07:51.456Z,48.30
2022-08-01T12:10:21.321Z,48.40
2022-08-01T12:12:51.095Z,48.20
2022-08-01T12:15:19.975Z,49.20
2022-08-01T12:18:01.538Z,48.30
2022-08-01T12:20:31.894Z,48.10
2022-08-01T12:23:02.922Z,48.30
2022-08-01T12:25:30.835Z,47.80
2022-08-01T12:28:06.912Z,48.00
2022-08-01T12:30:36.585Z,48.10
2022-08-01T12:33:11.408Z,48.30
2022-08-01T12:35:42.603Z,49.00
2022-08-01T12:38:27.777Z,48.30
2022-08-01T12:40:56.524Z,48.20
2022-08-01T12:43:29.372Z,47.70
2022-08-01T12:46:01.708Z,47.40
2022-08-01T12:48:32.274Z,47.50
2022-08-01T12:51:02.227Z,47.20
2022-08-01T12:53:40.511Z,47.40
2022-08-01T12:56:11.579Z,47.10
2022-08-01T12:58:39.908Z,47.20
2022-08-01T13:01:10.346Z,47.20
2022-08-01T13:03:38.342Z,47.60
2022-08-01T13:06:17.823Z,47.80
2022-08-01T13:08:46.312Z,47.40
2022-08-01T13:11:16.373Z,47.50
2022-08-01T13:13:49.695Z,47.80
2022-08-01T13:16:30.611Z,47.40
2022-08-01T13:19:07.189Z,47.50
2022-08-01T13:21:53.226Z,47.40
2022-08-01T13:24:30.388Z,47.10
2022-08-01T13:27:04.239Z,46.60
2022-08-01T13:29:38.833Z,46.80
2022-08-01T13:32:30.015Z,46.40
2022-08-01T13:35:04.831Z,45.90
2022-08-01T13:37:32.633Z,45.70
2022-08-01T13:40:00.216Z,45.50
2022-08-01T13:42:30.228Z,45.60
2022-08-01T13:44:57.927Z,45.70
2022-08-01T13:47:31.171Z,45.70
2022-08-01T13:50:02.940Z,45.40
2022-08-01T13:52:31.706Z,45.20
2022-08-01T13:55:00.608Z,45.00
2022-08-01T13:57:36.873Z,44.70
2022-08-01T14:00:07.552Z,45.00
2022-08-01T14:02:39.419Z,44.90
2022-08-01T14:05:07.741Z,44.60
2022-08-01T14:07:35.763Z,44.90
2022-08-01T14:10:19.921Z,45.20
2022-08-01T14:12:49.166Z,45.30
2022-08-01T14:15:36.645Z,45.10
2022-08-01T14:18:06.581Z,45.30
2022-08-01T14:20:35.979Z,44.90
2022-08-01T14:23:03.740Z,44.80
2022-08-01T14:26:00.431Z,45.00
2022-08-01T14:28:21.843Z,44.90
2022-08-01T14:30:49.340Z,45.00
2022-08-01T14:33:16.932Z,45.10
2022-08-01T14:36:05.774Z,45.20
2022-08-01T14:38:34.232Z,45.30
2022-08-01T14:41:04.204Z,45.50
2022-08-01T14:43:33.939Z,45.50
2022-08-01T14:46:02.241Z,45.50
2022-08-01T14:48:30.503Z,45.60
2022-08-01T14:50:59.998Z,45.50
2022-08-01T14:53:27.499Z,45.80
2022-08-01T14:55:55.107Z,45.30
2022-08-01T14:58:22.802Z,44.60
2022-08-01T15:00:52.428Z,44.70
2022-08-01T15:03:23.030Z,45.00
2022-08-01T15:05:50.500Z,44.90
2022-08-01T15:08:18.509Z,44.70
2022-08-01T15:10:46.059Z,44.70
2022-08-01T15:13:13.750Z,44.80
2022-08-01T15:15:41.183Z,44.50
2022-08-01T15:18:08.776Z,44.60
2022-08-01T15:20:36.371Z,44.40
2022-08-01T15:23:03.943Z,44.60
2022-08-01T15:25:40.965Z,44.80
2022-08-01T15:28:11.129Z,45.00
2022-08-01T15:30:39.120Z,45.00
2022-08-01T15:33:06.913Z,45.00
2022-08-01T15:35:34.589Z,44.90
2022-08-01T15:38:02.218Z,45.00
2022-08-01T15:40:30.141Z,44.90
2022-08-01T15:42:57.959Z,44.70
2022-08-01T15:48:15.372Z,44.20
2022-08-01T15:50:43.059Z,43.80
2022-08-01T15:53:10.715Z,43.70
2022-08-01T15:55:39.165Z,43.70
2022-08-01T15:58:08.026Z,43.60
2022-08-01T16:00:38.553Z,43.50
2022-08-01T16:03:10.738Z,43.50
2022-08-01T16:05:43.409Z,43.60
2022-08-01T16:08:14.886Z,43.70
2022-08-01T16:10:43.049Z,43.90
2022-08-01T16:13:11.558Z,44.20
2022-08-01T16:15:39.461Z,44.30
2022-08-01T16:18:09.120Z,44.40
2022-08-01T16:20:41.494Z,43.30
2022-08-01T16:23:13.141Z,44.20
2022-08-01T16:25:40.595Z,43.60
2022-08-01T16:28:09.914Z,43.50
2022-08-01T16:30:39.258Z,43.70
2022-08-01T16:33:40.130Z,43.50
2022-08-01T16:36:05.986Z,43.20
2022-08-01T16:38:33.428Z,43.10
2022-08-01T16:41:01.231Z,43.00
2022-08-01T16:43:29.295Z,42.80
2022-08-01T16:45:57.089Z,42.90
2022-08-01T16:48:24.925Z,43.00
2022-08-01T16:50:53.030Z,43.50
2022-08-01T16:53:22.712Z,42.60
2022-08-01T16:55:51.133Z,42.50
2022-08-01T16:58:27.768Z,42.80
2022-08-01T17:00:57.736Z,42.90
2022-08-01T17:03:52.750Z,43.00
2022-08-01T17:06:22.577Z,42.40
2022-08-01T17:08:50.815Z,42.80
2022-08-01T17:11:18.423Z,42.90
2022-08-01T17:13:46.010Z,43.00
2022-08-01T17:16:13.557Z,43.10
2022-08-01T17:18:41.114Z,42.80
2022-08-01T17:21:08.647Z,43.10
2022-08-01T17:23:36.265Z,43.30
2022-08-01T17:26:03.867Z,43.20
2022-08-01T17:28:31.853Z,43.20
2022-08-01T17:30:59.524Z,43.40
2022-08-01T17:33:44.627Z,43.30
2022-08-01T17:36:17.535Z,43.30
2022-08-01T17:38:45.013Z,43.40
2022-08-01T17:41:12.327Z,43.60
2022-08-01T17:43:39.702Z,43.80
2022-08-01T17:46:07.360Z,44.00
2022-08-01T17:48:34.793Z,44.00
2022-08-01T17:51:02.220Z,44.00
2022-08-01T17:53:30.364Z,44.00
2022-08-01T17:56:00.637Z,44.00
2022-08-01T17:58:50.295Z,44.10
2022-08-01T18:01:17.850Z,44.20
2022-08-01T18:03:45.705Z,44.40
2022-08-01T18:06:17.100Z,44.40
2022-08-01T18:08:47.470Z,44.60
2022-08-01T18:11:16.152Z,44.90
2022-08-01T18:13:44.049Z,44.80
2022-08-01T18:16:13.050Z,44.70
2022-08-01T18:18:42.433Z,44.70
2022-08-01T18:21:12.028Z,45.00
2022-08-01T18:23:39.913Z,45.00
2022-08-01T18:26:09.176Z,44.70
2022-08-01T18:28:42.061Z,45.00
2022-08-01T18:31:17.126Z,45.20
2022-08-01T18:33:44.747Z,45.40
2022-08-01T18:36:18.364Z,45.80
2022-08-01T18:39:02.051Z,45.70
2022-08-01T18:41:36.360Z,45.60
2022-08-01T18:44:07.874Z,45.90
2022-08-01T18:46:40.171Z,45.80
2022-08-01T18:49:10.153Z,45.80
2022-08-01T18:51:43.906Z,46.00
2022-08-01T18:54:14.331Z,45.90
2022-08-01T18:56:43.214Z,45.90
2022-08-01T18:59:10.706Z,45.90
2022-08-01T19:01:39.621Z,45.90
2022-08-01T19:04:07.598Z,46.00
2022-08-01T19:06:35.146Z,46.90
2022-08-01T19:09:03.607Z,47.50
2022-08-01T19:11:32.404Z,47.90
2022-08-01T19:14:01.196Z,48.70
2022-08-01T19:16:29.187Z,49.00
2022-08-01T19:18:56.937Z,49.10
2022-08-01T19:21:24.374Z,49.70
2022-08-01T19:24:10.560Z,50.00
2022-08-01T19:26:40.356Z,50.40
2022-08-01T19:29:14.994Z,50.60
2022-08-01T19:31:47.056Z,50.70
2022-08-01T19:34:18.857Z,50.70
2022-08-01T19:36:47.634Z,51.10
2022-08-01T19:39:18.047Z,51.70
2022-08-01T19:41:46.150Z,52.10
2022-08-01T19:44:15.677Z,51.90
2022-08-01T19:46:44.688Z,52.10
2022-08-01T19:49:14.188Z,52.40
2022-08-01T19:51:49.824Z,52.90
2022-08-01T19:54:19.687Z,53.30
2022-08-01T19:56:48.852Z,53.80
2022-08-01T19:59:21.870Z,53.80
2022-08-01T20:01:54.788Z,54.00
2022-08-01T20:04:22.731Z,53.70
2022-08-01T20:06:50.293Z,54.70
2022-08-01T20:09:17.575Z,54.00
2022-08-01T20:11:50.477Z,54.00
2022-08-01T20:14:20.749Z,54.20
2022-08-01T20:16:49.309Z,54.30
2022-08-01T20:19:18.513Z,54.20
2022-08-01T20:22:02.735Z,54.60
2022-08-01T20:24:41.350Z,54.80
2022-08-01T20:27:12.693Z,55.10
2022-08-01T20:29:41.621Z,55.00
2022-08-01T20:32:09.425Z,55.00
2022-08-01T20:34:38.512Z,55.40
2022-08-01T20:37:12.988Z,55.40
2022-08-01T20:39:43.492Z,55.60
2022-08-01T20:42:13.325Z,55.70
2022-08-01T20:44:42.709Z,55.80
2022-08-01T20:47:11.019Z,56.20
2022-08-01T20:49:40.649Z,56.40
2022-08-01T20:52:11.851Z,56.60
2022-08-01T20:54:43.511Z,56.30
2022-08-01T20:57:23.354Z,56.40
2022-08-01T21:00:03.106Z,56.30
2022-08-01T21:02:51.421Z,56.30
2022-08-01T21:05:29.616Z,56.10
2022-08-01T21:08:32.220Z,56.30
2022-08-01T21:11:02.136Z,56.20
2022-08-01T21:13:38.530Z,56.00
2022-08-01T21:16:23.743Z,56.90
2022-08-01T21:19:19.682Z,57.40
2022-08-01T21:22:10.221Z,57.80
2022-08-01T21:24:58.163Z,58.30
2022-08-01T21:27:33.455Z,58.30
2022-08-01T21:30:07.638Z,58.00
2022-08-01T21:32:36.629Z,58.40
2022-08-01T21:35:05.754Z,58.30
2022-08-01T21:37:45.320Z,58.50
2022-08-01T21:40:22.427Z,58.50
2022-08-01T21:42:51.753Z,59.10
2022-08-01T21:45:24.535Z,59.20
2022-08-01T21:47:53.265Z,59.20
2022-08-01T21:50:21.498Z,59.00
2022-08-01T21:53:09.359Z,59.00
2022-08-01T21:56:01.872Z,59.10
2022-08-01T21:58:52.271Z,59.10
2022-08-01T22:01:32.921Z,59.40
2022-08-01T22:04:20.919Z,59.50
2022-08-01T22:06:49.484Z,59.40
2022-08-01T22:09:18.315Z,59.70
2022-08-01T22:12:00.923Z,59.50
2022-08-01T22:14:42.972Z,59.70
2022-08-01T22:17:23.682Z,59.80
2022-08-01T22:19:54.874Z,60.30
2022-08-01T22:22:44.507Z,60.10
2022-08-01T22:25:12.365Z,60.30
2022-08-01T22:28:08.204Z,60.50
2022-08-01T22:30:33.372Z,61.20
2022-08-01T22:33:07.272Z,61.20
2022-08-01T22:35:45.135Z,61.20
2022-08-01T22:38:12.934Z,61.30
2022-08-01T22:40:48.026Z,61.40
2022-08-01T22:43:24.150Z,61.80
2022-08-01T22:46:10.157Z,61.90
2022-08-01T22:48:53.484Z,62.20
2022-08-01T22:51:43.867Z,62.20
2022-08-01T22:54:28.741Z,62.10
2022-08-01T22:57:00.087Z,62.00
2022-08-01T22:59:48.367Z,62.50
2022-08-01T23:02:18.055Z,63.00
2022-08-01T23:04:50.049Z,62.60
2022-08-01T23:07:22.730Z,63.30
2022-08-01T23:09:54.720Z,63.10
2022-08-01T23:12:25.291Z,62.90
2022-08-01T23:14:56.218Z,62.90
2022-08-01T23:17:31.488Z,63.00
2022-08-01T23:20:04.808Z,63.10
2022-08-01T23:22:34.171Z,63.10
2022-08-01T23:25:13.092Z,63.30
2022-08-01T23:28:03.917Z,63.00
2022-08-01T23:30:32.103Z,63.30
2022-08-01T23:32:59.625Z,63.20
2022-08-01T23:35:28.848Z,63.20
2022-08-01T23:38:01.894Z,63.30
2022-08-01T23:40:34.532Z,63.30
2022-08-01T23:43:03.597Z,63.60
2022-08-01T23:46:02.082Z,63.60
2022-08-01T23:48:19.548Z,63.60
2022-08-01T23:50:47.183Z,63.60
2022-08-01T23:53:14.693Z,63.70
2022-08-01T23:55:44.049Z,63.70
2022-08-01T23:58:11.925Z,64.00
